Time;durP1;ratioP1;P1;durP2;ratioP2;P2;SDS_P1;SDS_P2;PMS_P1;PMS_P2;Temp;Humidity;BMP_temperature;BMP_pressure;BME280_temperature;BME280_humidity;BME280_pressure;Samples;Min_cycle;Max_cycle;Signal;HPM_P1;HPM_P2
2024/03/16 00:02:06;;;;;;;66.60;25.30;;;;;;;6.00;84.70;99718.45;79594;1298;3013062;-62
2024/03/16 00:04:34;;;;;;;46.30;19.80;;;;;;;5.93;85.39;99721.83;78264;1298;3028585;-60
2024/03/16 00:07:01;;;;;;;56.20;22.40;;;;;;;6.34;84.65;99722.58;79501;1297;3013128;-61
2024/03/16 00:09:28;;;;;;;56.30;22.70;;;;;;;6.88;82.83;99721.65;79545;1296;3013213;-62
2024/03/16 00:11:56;;;;;;;52.90;22.20;;;;;;;6.91;81.81;99722.21;78286;1297;3028541;-61
2024/03/16 00:14:23;;;;;;;49.00;22.60;;;;;;;6.79;82.22;99714.86;79547;1298;3014066;-61
2024/03/16 00:16:50;;;;;;;62.00;25.60;;;;;;;6.67;82.48;99715.67;79455;1298;3011906;-61
2024/03/16 00:19:18;;;;;;;60.20;25.30;;;;;;;6.43;83.13;99713.89;78169;1298;3069620;-60
2024/03/16 00:21:45;;;;;;;61.30;24.70;;;;;;;6.31;83.96;99714.33;79507;1295;3013339;-61
2024/03/16 00:24:12;;;;;;;64.30;25.10;;;;;;;6.21;84.54;99715.58;79337;1295;3012812;-57
2024/03/16 00:26:40;;;;;;;61.10;25.50;;;;;;;6.06;85.33;99713.56;78265;1298;3052928;-60
2024/03/16 00:29:07;;;;;;;50.50;19.60;;;;;;;5.93;86.14;99712.29;79469;1298;3015352;-61
2024/03/16 00:31:36;;;;;;;52.80;22.50;;;;;;;6.31;85.20;99718.14;79429;1298;3013250;-60
2024/03/16 00:34:04;;;;;;;46.50;19.60;;;;;;;6.85;82.89;99717.42;78253;1298;3068128;-60
2024/03/16 00:36:32;;;;;;;49.80;21.80;;;;;;;6.90;82.14;99717.89;79393;1295;3013183;-59
2024/03/16 00:38:58;;;;;;;53.10;23.50;;;;;;;6.74;82.40;99718.36;79514;1296;3011480;-62
2024/03/16 00:41:26;;;;;;;48.00;22.60;;;;;;;6.51;83.30;99715.81;78167;1298;3026892;-61
2024/03/16 00:43:53;;;;;;;55.40;22.50;;;;;;;6.36;83.96;99711.73;79492;1298;3013750;-62
2024/03/16 00:46:19;;;;;;;55.00;23.90;;;;;;;6.19;84.49;99713.57;79385;1298;3013241;-59
2024/03/16 00:48:47;;;;;;;54.10;23.80;;;;;;;6.07;85.08;99713.16;78254;1298;3029072;-60
2024/03/16 00:51:14;;;;;;;54.10;22.90;;;;;;;5.95;85.66;99709.60;79468;1298;3013581;-59
2024/03/16 00:53:45;;;;;;;57.40;22.90;;;;;;;5.87;86.04;99705.05;79528;1298;3011603;-59
2024/03/16 00:56:13;;;;;;;40.90;16.60;;;;;;;5.84;86.09;99708.58;78202;1298;3053211;-61
2024/03/16 00:58:40;;;;;;;47.10;19.70;;;;;;;6.36;84.71;99705.63;79468;1308;3012873;-59
2024/03/16 01:01:06;;;;;;;46.70;19.40;;;;;;;6.84;82.53;99705.23;79389;1298;3013006;-61
2024/03/16 01:03:34;;;;;;;48.80;21.90;;;;;;;6.89;81.62;99704.86;78211;1296;3024945;-58
2024/03/16 01:06:02;;;;;;;49.30;23.30;;;;;;;6.77;81.81;99701.73;79465;1295;3013645;-59
2024/03/16 01:08:29;;;;;;;55.90;22.70;;;;;;;6.58;82.42;99703.16;79608;1295;3011951;-57
2024/03/16 01:10:57;;;;;;;49.90;21.60;;;;;;;6.41;83.11;99700.02;78300;1298;3053852;-60
2024/03/16 01:13:24;;;;;;;52.70;21.80;;;;;;;6.28;83.43;99700.18;79518;1297;3013801;-64
2024/03/16 01:15:51;;;;;;;52.80;22.90;;;;;;;6.15;83.91;99700.88;79502;1298;3011491;-58
2024/03/16 01:18:19;;;;;;;48.60;21.80;;;;;;;6.01;84.55;99702.27;78393;1296;3068633;-60
2024/03/16 01:20:49;;;;;;;45.50;20.90;;;;;;;5.95;84.80;99704.58;79532;1295;3013653;-57
2024/03/16 01:23:19;;;;;;;45.50;18.50;;;;;;;5.84;85.14;99706.17;79145;1295;3012978;-60
2024/03/16 01:25:46;;;;;;;44.20;20.00;;;;;;;6.28;84.54;99706.98;79778;1298;3012657;-63
2024/03/16 01:28:13;;;;;;;45.40;19.00;;;;;;;6.77;82.32;99705.38;79804;1295;3011450;-58
2024/03/16 01:30:41;;;;;;;47.90;21.10;;;;;;;6.91;81.84;99702.20;78398;1297;3052761;-61
2024/03/16 01:33:08;;;;;;;49.00;22.20;;;;;;;6.74;82.08;99704.80;79513;1297;3013540;-60
2024/03/16 01:35:34;;;;;;;48.00;23.60;;;;;;;6.66;81.93;99703.74;79340;1298;3013257;-61
2024/03/16 01:38:02;;;;;;;47.00;21.60;;;;;;;6.55;82.45;99708.16;78489;1294;3028258;-62
2024/03/16 01:40:32;;;;;;;45.10;22.00;;;;;;;6.53;82.42;99707.39;79664;1296;3013206;-62
2024/03/16 01:43:01;;;;;;;46.90;22.00;;;;;;;6.36;81.93;99704.58;79144;1298;3011563;-60
2024/03/16 01:45:27;;;;;;;45.60;22.00;;;;;;;6.29;82.14;99705.36;81959;1297;3018693;-60
2024/03/16 01:47:54;;;;;;;55.30;25.00;;;;;;;6.25;82.30;99703.80;82143;1295;3011304;-61
2024/03/16 01:50:22;;;;;;;56.00;25.70;;;;;;;6.17;82.11;99705.64;78304;1298;3026855;-62
2024/03/16 01:52:49;;;;;;;48.50;18.50;;;;;;;6.13;82.41;99705.48;80496;1296;3018277;-61
2024/03/16 01:55:16;;;;;;;49.20;22.30;;;;;;;6.68;81.75;99703.98;79765;1302;3011734;-61
2024/03/16 01:57:44;;;;;;;53.60;23.00;;;;;;;7.31;80.02;99704.31;78129;1295;3026803;-59
2024/03/16 02:00:11;;;;;;;54.90;23.60;;;;;;;7.34;78.90;99700.71;79464;1298;3013598;-60
2024/03/16 02:02:38;;;;;;;60.90;25.90;;;;;;;7.20;79.09;99702.70;79454;1298;3013557;-61
2024/03/16 02:05:06;;;;;;;54.20;25.80;;;;;;;6.97;79.74;99704.38;78165;1296;3069138;-58
2024/03/16 02:07:34;;;;;;;68.70;27.70;;;;;;;6.78;80.11;99706.02;79429;1298;3018537;-59
2024/03/16 02:10:03;;;;;;;63.70;28.90;;;;;;;6.56;80.53;99707.26;79464;1294;3011637;-60
2024/03/16 02:12:31;;;;;;;78.40;30.40;;;;;;;6.39;81.51;99706.52;78189;1298;3053087;-61
2024/03/16 02:14:58;;;;;;;70.80;28.40;;;;;;;6.27;81.92;99708.56;79484;1298;3012978;-59
2024/03/16 02:17:25;;;;;;;81.80;32.30;;;;;;;6.07;82.69;99709.15;79545;1298;3011852;-60
2024/03/16 02:19:53;;;;;;;59.60;24.70;;;;;;;5.95;83.86;99710.13;78214;1299;3028243;-61
2024/03/16 02:22:19;;;;;;;75.00;28.30;;;;;;;6.34;83.53;99712.30;79353;1298;3013669;-60
2024/03/16 02:24:46;;;;;;;66.60;28.40;;;;;;;6.86;82.31;99711.97;79484;1298;3013392;-59
2024/03/16 02:27:14;;;;;;;63.50;28.50;;;;;;;6.91;81.89;99712.63;78945;1298;3026619;-61
2024/03/16 02:29:42;;;;;;;62.00;27.80;;;;;;;6.86;82.14;99712.46;79619;1298;3019259;-61
2024/03/16 02:32:09;;;;;;;73.30;30.20;;;;;;;6.61;82.22;99709.66;79654;1298;3012900;-61
2024/03/16 02:34:37;;;;;;;85.90;32.40;;;;;;;6.34;83.13;99713.16;78292;1299;3069113;-61
2024/03/16 02:37:05;;;;;;;78.60;29.70;;;;;;;6.23;84.11;99711.02;79534;1298;3018771;-59
2024/03/16 02:39:31;;;;;;;87.40;32.20;;;;;;;6.12;84.54;99713.83;79635;1295;3011877;-62
2024/03/16 02:42:00;;;;;;;74.30;30.20;;;;;;;5.99;85.40;99710.67;78320;1297;3052652;-61
2024/03/16 02:44:27;;;;;;;71.70;24.60;;;;;;;5.92;85.88;99709.54;79518;1298;3013448;-61
2024/03/16 02:46:53;;;;;;;68.60;26.90;;;;;;;6.38;84.90;99712.48;79394;1298;3013880;-63
2024/03/16 02:49:22;;;;;;;69.30;28.20;;;;;;;6.77;82.85;99711.64;78273;1304;3068737;-60
2024/03/16 02:51:49;;;;;;;69.90;28.40;;;;;;;6.76;82.72;99716.70;79578;1296;3013393;-61
2024/03/16 02:54:16;;;;;;;81.40;29.70;;;;;;;6.72;83.18;99713.76;79503;1294;3011980;-60
2024/03/16 02:56:44;;;;;;;81.70;31.20;;;;;;;6.55;83.22;99714.42;78296;1298;3051948;-60
2024/03/16 02:59:11;;;;;;;80.60;30.80;;;;;;;6.34;83.92;99721.71;79625;1295;3013247;-59
2024/03/16 03:01:38;;;;;;;86.30;32.40;;;;;;;6.22;83.99;99721.10;79628;1298;3012826;-61
2024/03/16 03:04:07;;;;;;;98.10;32.50;;;;;;;5.98;84.73;99720.95;78316;1295;3029014;-59
2024/03/16 03:06:33;;;;;;;84.50;30.30;;;;;;;5.87;86.07;99722.22;79612;1299;3013687;-60
2024/03/16 03:09:00;;;;;;;80.80;26.40;;;;;;;5.80;86.59;99725.62;79509;1298;3012003;-61
2024/03/16 03:11:28;;;;;;;78.50;29.40;;;;;;;6.28;85.67;99724.70;78408;1302;3027708;-58
2024/03/16 03:13:54;;;;;;;79.20;26.50;;;;;;;6.90;84.02;99723.11;79556;1302;3013192;-59
2024/03/16 03:16:23;;;;;;;76.10;27.70;;;;;;;7.02;82.83;99724.89;79501;1298;3011955;-61
2024/03/16 03:18:51;;;;;;;84.60;30.10;;;;;;;6.94;82.97;99723.66;78273;1305;3068387;-60
2024/03/16 03:21:18;;;;;;;80.30;31.00;;;;;;;6.78;83.11;99725.71;79501;1297;3018441;-60
2024/03/16 03:23:45;;;;;;;81.30;30.20;;;;;;;6.54;83.29;99724.90;79604;1297;3011868;-61
2024/03/16 03:26:13;;;;;;;98.70;33.50;;;;;;;6.38;84.01;99722.58;78913;1298;3028289;-61
2024/03/16 03:28:40;;;;;;;99.30;32.70;;;;;;;6.23;84.42;99726.98;79768;1297;3013219;-63
2024/03/16 03:31:09;;;;;;;88.90;33.30;;;;;;;6.09;85.22;99725.44;79480;1298;3011600;-66
2024/03/16 03:33:38;;;;;;;81.00;26.00;;;;;;;6.04;85.72;99728.94;78235;1298;3068720;-60
2024/03/16 03:36:05;;;;;;;76.80;27.90;;;;;;;6.53;84.81;99728.09;79698;1294;3021317;-59
2024/03/16 03:38:32;;;;;;;91.40;28.90;;;;;;;7.12;82.89;99729.02;79635;1296;3011541;-60
2024/03/16 03:41:00;;;;;;;74.00;28.00;;;;;;;7.17;81.97;99732.44;78327;1302;3053118;-59
2024/03/16 03:43:27;;;;;;;75.80;29.50;;;;;;;7.02;81.89;99732.20;79420;1298;3012708;-60
2024/03/16 03:45:54;;;;;;;83.60;30.30;;;;;;;6.79;82.54;99733.33;79509;1306;3013613;-61
2024/03/16 03:50:53;;;;;;;86.00;30.00;;;;;;;6.43;83.98;99736.14;79458;1292;3014133;-57
2024/03/16 03:53:22;;;;;;;86.00;30.70;;;;;;;6.31;84.27;99739.38;78257;1299;3048595;-59
2024/03/16 03:55:49;;;;;;;86.80;29.70;;;;;;;6.20;84.58;99740.17;79638;1299;3015050;-57
2024/03/16 03:58:16;;;;;;;65.20;22.10;;;;;;;6.08;84.95;99738.70;79539;1298;3011406;-60
2024/03/16 04:00:48;;;;;;;85.00;28.40;;;;;;;6.46;84.30;99744.19;78313;1299;3052764;-59
2024/03/16 04:03:15;;;;;;;72.70;26.50;;;;;;;7.00;82.37;99745.50;79436;1293;3011448;-61
2024/03/16 04:05:43;;;;;;;74.00;28.10;;;;;;;7.03;81.53;99746.97;78292;1299;3028417;-62
2024/03/16 04:08:10;;;;;;;80.00;27.20;;;;;;;6.94;82.04;99746.80;79499;1295;3013307;-58
2024/03/16 04:10:37;;;;;;;86.80;30.60;;;;;;;6.72;82.17;99748.38;79564;1298;3011631;-58
2024/03/16 04:13:05;;;;;;;89.40;30.00;;;;;;;6.52;82.87;99748.66;78585;1298;3028585;-59
2024/03/16 04:15:31;;;;;;;80.70;30.00;;;;;;;6.35;83.54;99744.63;79857;1298;3012001;-60
2024/03/16 04:17:58;;;;;;;94.90;31.40;;;;;;;6.25;84.02;99748.13;79357;1298;3013157;-60
2024/03/16 04:20:26;;;;;;;96.00;33.10;;;;;;;6.03;84.80;99747.20;78205;1298;3027409;-60
2024/03/16 04:22:53;;;;;;;73.20;24.70;;;;;;;5.92;85.93;99749.18;79507;1298;3013244;-61
2024/03/16 04:25:21;;;;;;;100.10;29.60;;;;;;;6.44;84.88;99746.85;79426;1298;3011804;-61
2024/03/16 04:27:49;;;;;;;79.20;27.00;;;;;;;7.00;82.50;99750.74;79331;1298;3050303;-59
2024/03/16 04:30:15;;;;;;;90.10;29.60;;;;;;;7.13;81.75;99749.70;79544;1296;3020740;-61
2024/03/16 04:32:42;;;;;;;90.00;30.20;;;;;;;6.91;81.59;99753.38;79651;1299;3011403;-60
2024/03/16 04:35:11;;;;;;;80.90;30.50;;;;;;;6.79;82.21;99753.67;78361;1298;3028230;-63
2024/03/16 04:37:38;;;;;;;91.90;31.10;;;;;;;6.65;82.46;99755.97;79486;1297;3014061;-61
2024/03/16 04:40:06;;;;;;;83.40;31.70;;;;;;;6.50;82.66;99759.71;79570;1296;3013378;-60
2024/03/16 04:42:34;;;;;;;86.50;29.70;;;;;;;6.34;83.19;99759.30;78331;1298;3050739;-60
2024/03/16 04:45:00;;;;;;;100.40;31.80;;;;;;;6.20;83.62;99759.63;79559;1298;3013391;-61
2024/03/16 04:47:27;;;;;;;103.30;35.00;;;;;;;6.06;84.21;99761.73;79578;1295;3013551;-60
2024/03/16 04:49:55;;;;;;;78.60;24.60;;;;;;;5.99;84.81;99765.64;78324;1298;3026518;-59
2024/03/16 04:52:22;;;;;;;105.70;29.20;;;;;;;6.38;84.17;99766.61;79480;1295;3011722;-62
2024/03/16 04:54:48;;;;;;;100.20;28.50;;;;;;;6.84;82.15;99769.83;79529;1296;3013068;-61
2024/03/16 04:57:18;;;;;;;93.80;27.90;;;;;;;7.01;81.23;99768.98;78242;1298;3028774;-62
2024/03/16 04:59:45;;;;;;;102.10;31.30;;;;;;;6.95;81.72;99769.75;79570;1298;3013274;-59
2024/03/16 05:02:11;;;;;;;99.40;27.80;;;;;;;6.78;81.95;99775.33;79737;1294;3011827;-59
2024/03/16 05:04:39;;;;;;;106.10;29.80;;;;;;;6.48;82.59;99778.05;78286;1294;3051793;-59
2024/03/16 05:07:06;;;;;;;130.80;28.40;;;;;;;6.29;83.61;99782.45;79581;1295;3020567;-59
2024/03/16 05:09:33;;;;;;;111.00;28.90;;;;;;;6.21;84.09;99784.63;79653;1298;3011869;-60
2024/03/16 05:12:00;;;;;;;106.00;28.20;;;;;;;6.12;84.31;99785.67;78336;1297;3028273;-61
2024/03/16 05:14:27;;;;;;;131.40;29.00;;;;;;;5.95;85.08;99792.70;79521;1298;3020661;-60
2024/03/16 05:16:54;;;;;;;91.60;22.00;;;;;;;5.89;85.76;99793.08;79531;1298;3011849;-61
2024/03/16 05:19:22;;;;;;;108.60;24.90;;;;;;;6.34;84.66;99790.94;78294;1298;3026461;-60
2024/03/16 05:21:49;;;;;;;78.00;23.70;;;;;;;6.79;82.91;99790.24;79537;1296;3020544;-60
2024/03/16 05:24:15;;;;;;;76.70;24.70;;;;;;;6.93;82.27;99790.05;79521;1297;3011630;-62
2024/03/16 05:26:43;;;;;;;95.40;25.60;;;;;;;6.83;81.77;99793.38;79245;1295;3026360;-60
2024/03/16 05:29:10;;;;;;;83.10;24.10;;;;;;;6.71;81.89;99798.22;79432;1299;3013073;-60
2024/03/16 05:31:37;;;;;;;101.30;27.30;;;;;;;6.52;82.58;99794.42;79567;1298;3012211;-62
2024/03/16 05:34:05;;;;;;;80.80;25.20;;;;;;;6.46;83.18;99794.33;78326;1298;3028197;-59
2024/03/16 05:36:33;;;;;;;91.40;27.50;;;;;;;6.41;83.14;99794.68;79678;1296;3013276;-63
2024/03/16 05:39:00;;;;;;;99.10;27.40;;;;;;;6.28;83.54;99801.43;79551;1294;3011762;-58
2024/03/16 05:41:28;;;;;;;81.40;28.50;;;;;;;6.14;84.40;99802.81;78385;1295;3050459;-63
2024/03/16 05:43:54;;;;;;;78.20;22.40;;;;;;;6.02;85.04;99804.98;80555;1295;3013493;-64
2024/03/16 05:46:21;;;;;;;83.50;26.20;;;;;;;6.52;84.12;99810.77;81159;1298;3011391;-60
2024/03/16 05:48:48;;;;;;;70.20;25.80;;;;;;;7.14;81.33;99809.55;78260;1298;3028707;-62
2024/03/16 05:51:15;;;;;;;83.80;25.60;;;;;;;7.22;80.09;99813.94;79591;1296;3012909;-63
2024/03/16 05:53:42;;;;;;;82.70;28.00;;;;;;;7.09;80.22;99813.08;79548;1298;3011518;-62
2024/03/16 05:56:12;;;;;;;74.20;27.30;;;;;;;6.97;80.71;99813.04;78275;1297;3026680;-58
2024/03/16 05:58:39;;;;;;;97.40;29.20;;;;;;;6.83;81.00;99813.45;79718;1298;3011867;-63
2024/03/16 06:01:06;;;;;;;81.80;28.10;;;;;;;6.67;81.31;99811.92;79541;1295;3011635;-62
2024/03/16 06:03:34;;;;;;;86.60;28.40;;;;;;;6.53;82.19;99814.07;78422;1296;3052239;-62
2024/03/16 06:06:00;;;;;;;76.40;29.40;;;;;;;6.44;82.36;99816.48;79473;1297;3013679;-59
2024/03/16 06:08:27;;;;;;;75.70;28.30;;;;;;;6.42;82.90;99820.06;79555;1297;3011442;-61
2024/03/16 06:10:55;;;;;;;59.00;21.80;;;;;;;6.39;83.19;99820.36;78359;1297;3026806;-61
2024/03/16 06:13:21;;;;;;;67.80;25.70;;;;;;;6.83;82.01;99827.52;80058;1297;3013211;-61
2024/03/16 06:15:49;;;;;;;71.50;24.00;;;;;;;7.39;79.48;99825.60;79555;1298;3011869;-63
2024/03/16 06:18:18;;;;;;;63.20;24.90;;;;;;;7.52;78.41;99827.70;78699;1294;3028600;-62
2024/03/16 06:20:46;;;;;;;72.90;25.30;;;;;;;7.40;78.48;99825.77;79553;1296;3011661;-63
2024/03/16 06:23:14;;;;;;;71.80;25.60;;;;;;;7.26;79.09;99827.90;79057;1297;3013215;-59
2024/03/16 06:25:48;;;;;;;67.60;24.90;;;;;;;7.12;79.53;99830.73;79842;1295;3011595;-61
2024/03/16 06:28:17;;;;;;;80.30;27.50;;;;;;;6.96;80.28;99829.95;78754;1298;3051117;-61
2024/03/16 06:30:48;;;;;;;77.20;25.80;;;;;;;6.81;80.35;99828.30;79704;1298;3015803;-63
2024/03/16 06:33:26;;;;;;;73.10;27.20;;;;;;;6.67;80.77;99830.08;78297;1294;3052681;-63
2024/03/16 06:35:54;;;;;;;79.30;27.20;;;;;;;6.55;81.33;99830.16;78698;1298;3057088;-58
2024/03/16 06:38:21;;;;;;;78.50;26.90;;;;;;;6.63;81.32;99830.37;79747;1294;3018774;-63
2024/03/16 06:40:49;;;;;;;80.60;27.20;;;;;;;6.58;80.88;99831.26;79461;1298;3013247;-63
2024/03/16 06:43:17;;;;;;;74.00;21.60;;;;;;;6.58;81.44;99834.27;78501;1295;3053412;-59
2024/03/16 06:45:44;;;;;;;67.40;23.40;;;;;;;7.15;79.88;99834.25;79432;1298;3020544;-63
2024/03/16 06:48:10;;;;;;;75.30;24.10;;;;;;;7.65;77.10;99833.42;79538;1298;3013116;-63
2024/03/16 06:50:38;;;;;;;67.00;23.30;;;;;;;7.78;76.93;99837.77;78141;1297;3028836;-61
2024/03/16 06:53:06;;;;;;;62.60;24.00;;;;;;;7.72;76.64;99832.57;79416;1294;3014511;-62
2024/03/16 06:55:33;;;;;;;70.20;25.70;;;;;;;7.59;76.96;99839.25;79444;1296;3013170;-62
2024/03/16 06:58:04;;;;;;;80.20;26.30;;;;;;;7.40;77.81;99838.30;78277;1298;3051677;-61
2024/03/16 07:00:31;;;;;;;83.90;28.00;;;;;;;7.27;78.37;99834.30;79620;1298;3011719;-61
2024/03/16 07:03:00;;;;;;;75.50;26.30;;;;;;;7.08;79.12;99841.68;79034;1298;3334347;-62
2024/03/16 07:05:27;;;;;;;74.30;26.50;;;;;;;6.96;79.52;99837.82;79536;1295;3018951;-61
2024/03/16 07:07:53;;;;;;;78.70;26.60;;;;;;;6.88;80.22;99839.33;79810;1295;3013371;-60
2024/03/16 07:10:21;;;;;;;73.70;26.50;;;;;;;6.91;79.78;99837.84;78258;1298;3026263;-61
2024/03/16 07:12:48;;;;;;;72.70;27.30;;;;;;;6.82;80.23;99834.70;79692;1298;3013280;-60
2024/03/16 07:15:15;;;;;;;70.10;27.40;;;;;;;6.76;80.47;99836.14;80076;1298;3011853;-65
2024/03/16 07:17:43;;;;;;;57.50;20.00;;;;;;;6.77;80.65;99834.39;78623;1298;3068777;-61
2024/03/16 07:20:11;;;;;;;60.20;23.70;;;;;;;7.33;79.13;99835.09;79574;1298;3013213;-62
2024/03/16 07:22:40;;;;;;;66.10;23.40;;;;;;;7.83;76.58;99838.06;79379;1296;3011633;-62
2024/03/16 07:25:08;;;;;;;58.80;23.90;;;;;;;7.89;75.61;99835.16;78366;1294;3053630;-60
2024/03/16 07:27:35;;;;;;;67.80;25.60;;;;;;;7.79;75.82;99834.77;79631;1293;3013100;-60
2024/03/16 07:30:02;;;;;;;60.20;26.20;;;;;;;7.62;76.32;99834.06;80092;1298;3012795;-61
2024/03/16 07:32:29;;;;;;;66.80;27.10;;;;;;;7.48;77.52;99833.44;78539;1295;3029101;-61
2024/03/16 07:34:56;;;;;;;58.50;26.20;;;;;;;7.36;78.55;99830.63;79545;1298;3013521;-58
2024/03/16 07:37:23;;;;;;;67.40;26.00;;;;;;;7.26;79.29;99832.77;79492;1297;3011466;-60
2024/03/16 07:39:51;;;;;;;55.30;26.00;;;;;;;7.24;79.85;99835.46;78328;1298;3028007;-60
2024/03/16 07:42:17;;;;;;;63.30;26.00;;;;;;;7.18;80.05;99833.09;79862;1295;3013557;-61
2024/03/16 07:44:44;;;;;;;77.30;26.60;;;;;;;7.14;79.71;99835.35;80159;1294;3011843;-59
2024/03/16 07:47:12;;;;;;;62.10;26.70;;;;;;;7.12;79.45;99834.38;78263;1298;3026591;-60
2024/03/16 07:49:38;;;;;;;83.00;28.00;;;;;;;7.13;79.44;99834.52;79557;1295;3018413;-61
2024/03/16 07:52:05;;;;;;;57.60;22.50;;;;;;;7.11;79.74;99832.52;79801;1298;3011695;-62
2024/03/16 07:54:36;;;;;;;64.20;24.70;;;;;;;7.59;78.35;99833.51;78265;1296;3028581;-59
2024/03/16 07:57:03;;;;;;;65.10;24.50;;;;;;;8.21;76.22;99832.39;79916;1294;3013679;-60
2024/03/16 07:59:32;;;;;;;68.30;26.60;;;;;;;8.31;74.88;99833.48;79586;1298;3011601;-58
2024/03/16 08:01:59;;;;;;;64.00;26.90;;;;;;;8.28;74.78;99831.19;79686;1297;3013532;-61
2024/03/16 08:04:27;;;;;;;74.20;28.60;;;;;;;8.08;74.90;99833.14;79414;1295;3011571;-61
2024/03/16 08:06:55;;;;;;;78.50;29.40;;;;;;;7.87;75.46;99835.59;78230;1295;3056932;-63
2024/03/16 08:09:23;;;;;;;75.10;29.70;;;;;;;7.67;76.33;99834.02;79996;1297;3013336;-59
2024/03/16 08:11:51;;;;;;;80.90;30.40;;;;;;;7.60;76.38;99833.98;80288;1293;3012973;-60
2024/03/16 08:14:20;;;;;;;72.30;30.40;;;;;;;7.52;76.76;99831.69;78549;1298;3053286;-62
2024/03/16 08:16:46;;;;;;;79.40;31.80;;;;;;;7.50;76.93;99829.36;79642;1295;3013445;-61
2024/03/16 08:19:15;;;;;;;85.80;31.80;;;;;;;7.43;76.99;99834.87;79634;1296;3011824;-62
2024/03/16 08:21:43;;;;;;;75.00;30.90;;;;;;;7.40;77.18;99832.58;79678;1296;3055838;-59
2024/03/16 08:27:00;;;;;;;76.90;33.00;;;;;;;7.54;77.00;99836.46;80487;1297;3013034;-61
2024/03/16 08:29:27;;;;;;;83.80;33.30;;;;;;;7.41;77.73;99833.02;79496;1299;3018992;-62
2024/03/16 08:31:55;;;;;;;92.00;33.00;;;;;;;7.38;77.95;99831.94;79437;1301;3011537;-62
2024/03/16 08:34:23;;;;;;;79.70;31.20;;;;;;;7.54;77.68;99830.41;78193;1300;3052012;-58
2024/03/16 08:36:49;;;;;;;79.20;32.20;;;;;;;7.48;77.68;99832.91;79373;1300;3013086;-62
2024/03/16 08:39:16;;;;;;;70.20;22.60;;;;;;;7.42;78.05;99832.64;79387;1300;3011891;-62
2024/03/16 08:41:44;;;;;;;67.50;25.50;;;;;;;7.89;76.38;99832.36;78288;1292;3027123;-61
2024/03/16 08:44:11;;;;;;;75.20;26.10;;;;;;;8.44;73.86;99830.48;79543;1292;3013636;-60
2024/03/16 08:46:37;;;;;;;64.20;26.80;;;;;;;8.60;72.98;99829.95;79576;1292;3013365;-64
2024/03/16 08:49:07;;;;;;;72.80;28.90;;;;;;;8.51;72.50;99829.96;78417;1298;3026945;-60
2024/03/16 08:51:34;;;;;;;71.50;28.70;;;;;;;8.35;73.41;99830.55;79708;1293;3012838;-62
2024/03/16 08:54:00;;;;;;;91.40;30.20;;;;;;;8.33;73.54;99832.70;79545;1292;3011426;-64
2024/03/16 08:56:28;;;;;;;80.20;29.70;;;;;;;8.15;74.26;99831.23;78408;1297;3049989;-62
2024/03/16 08:58:55;;;;;;;88.90;30.00;;;;;;;8.03;74.88;99831.45;79554;1292;3013459;-61
2024/03/16 09:01:22;;;;;;;89.40;30.90;;;;;;;8.00;75.32;99829.63;80084;1295;3011521;-60
2024/03/16 09:03:50;;;;;;;81.20;33.50;;;;;;;7.92;76.34;99830.53;78401;1297;3026269;-62
2024/03/16 09:06:17;;;;;;;81.50;33.60;;;;;;;7.94;76.53;99829.56;79626;1297;3018829;-60
2024/03/16 09:08:43;;;;;;;77.70;31.60;;;;;;;7.94;76.46;99830.80;79572;1298;3011630;-62
2024/03/16 09:11:11;;;;;;;90.90;32.70;;;;;;;7.95;76.57;99826.38;78360;1295;3028545;-62
2024/03/16 09:13:38;;;;;;;72.50;31.30;;;;;;;7.94;76.35;99828.02;79538;1293;3013024;-61
2024/03/16 09:16:05;;;;;;;90.20;32.90;;;;;;;7.90;76.67;99823.80;79588;1293;3011570;-63
2024/03/16 09:18:36;;;;;;;83.40;33.20;;;;;;;7.87;77.21;99825.65;78348;1298;3051674;-59
2024/03/16 09:21:05;;;;;;;93.30;33.50;;;;;;;7.85;77.57;99825.93;79936;1292;3011739;-60
2024/03/16 09:23:33;;;;;;;88.60;33.60;;;;;;;7.79;77.92;99821.65;78566;1297;3051574;-59
2024/03/16 09:26:01;;;;;;;90.90;33.70;;;;;;;7.74;77.68;99820.65;79788;1292;3013319;-60
2024/03/16 09:28:27;;;;;;;83.60;32.40;;;;;;;7.78;77.72;99819.46;79536;1292;3011848;-62
2024/03/16 09:30:55;;;;;;;75.60;25.60;;;;;;;7.82;77.91;99817.34;78420;1297;3050657;-62
2024/03/16 09:33:22;;;;;;;96.70;29.80;;;;;;;8.34;76.33;99815.04;79564;1298;3012944;-61
2024/03/16 09:35:51;;;;;;;80.50;29.40;;;;;;;8.88;74.03;99815.88;79542;1298;3011674;-63
2024/03/16 09:38:19;;;;;;;88.30;29.80;;;;;;;9.03;72.83;99815.16;78448;1298;3051702;-62
2024/03/16 09:40:52;;;;;;;95.90;31.50;;;;;;;8.93;73.19;99812.15;79669;1295;3013766;-63
2024/03/16 09:43:20;;;;;;;92.20;32.90;;;;;;;8.73;73.75;99815.17;78488;1292;3054079;-62
2024/03/16 09:45:46;;;;;;;89.30;32.20;;;;;;;8.57;74.67;99809.64;79600;1298;3013627;-63
2024/03/16 09:48:13;;;;;;;116.70;34.20;;;;;;;8.56;74.85;99811.98;79517;1297;3011812;-61
2024/03/16 09:50:47;;;;;;;98.10;34.20;;;;;;;8.39;74.85;99813.77;78487;1297;3029405;-61
2024/03/16 09:53:31;;;;;;;87.80;33.90;;;;;;;8.31;75.31;99814.29;80029;1296;3012964;-60
2024/03/16 09:56:04;;;;;;;92.40;34.50;;;;;;;8.23;75.62;99812.73;78335;1298;3057195;-61
2024/03/16 09:58:32;;;;;;;107.40;34.60;;;;;;;8.16;76.16;99815.14;79688;1292;3011413;-62
2024/03/16 10:01:01;;;;;;;94.30;36.20;;;;;;;8.06;76.61;99813.85;78333;1298;3052891;-62
2024/03/16 10:03:31;;;;;;;79.40;33.80;;;;;;;8.04;77.12;99813.41;79834;1292;3013258;-61
2024/03/16 10:06:04;;;;;;;100.10;34.00;;;;;;;8.04;77.01;99811.67;78282;1297;3052216;-61
2024/03/16 10:08:32;;;;;;;90.60;34.20;;;;;;;8.05;76.88;99810.59;79628;1297;3013377;-61
2024/03/16 10:11:15;;;;;;;94.70;34.90;;;;;;;8.08;76.86;99809.91;78652;1297;3068981;-61
2024/03/16 10:13:59;;;;;;;82.10;34.70;;;;;;;8.11;77.30;99809.25;78805;1295;3051048;-62
2024/03/16 10:16:27;;;;;;;100.60;35.60;;;;;;;8.14;77.34;99813.83;78567;1295;3056593;-60
2024/03/16 10:18:53;;;;;;;99.20;35.40;;;;;;;8.14;76.79;99807.91;79457;1294;3012975;-59
2024/03/16 10:21:20;;;;;;;113.40;35.20;;;;;;;8.17;77.21;99807.27;79933;1292;3011837;-62
2024/03/16 10:23:48;;;;;;;91.50;35.30;;;;;;;8.16;76.69;99806.98;78489;1298;3026601;-63
2024/03/16 10:26:15;;;;;;;98.60;37.60;;;;;;;8.14;77.15;99804.08;79554;1297;3013095;-63
2024/03/16 10:28:43;;;;;;;109.70;36.80;;;;;;;8.14;77.07;99804.75;79690;1297;3011831;-61
2024/03/16 10:31:10;;;;;;;89.20;35.60;;;;;;;8.14;76.80;99805.98;78361;1298;3028855;-61
2024/03/16 10:33:41;;;;;;;85.30;26.20;;;;;;;8.17;76.78;99804.09;79538;1294;3013645;-61
2024/03/16 10:36:15;;;;;;;91.60;30.80;;;;;;;8.74;74.81;99804.28;79710;1293;3050402;-62
2024/03/16 10:38:42;;;;;;;90.30;30.40;;;;;;;9.35;72.04;99805.52;79566;1298;3011629;-60
2024/03/16 10:41:11;;;;;;;108.70;34.20;;;;;;;9.47;71.27;99802.67;78320;1295;3053941;-61
2024/03/16 10:43:38;;;;;;;93.80;33.50;;;;;;;9.39;71.08;99802.53;79492;1297;3014260;-61
2024/03/16 10:46:15;;;;;;;91.70;34.40;;;;;;;9.27;71.36;99801.20;79500;1297;3012626;-63
2024/03/16 10:48:43;;;;;;;113.70;36.30;;;;;;;9.12;71.97;99795.81;78304;1297;3050248;-60
2024/03/16 10:51:14;;;;;;;106.50;36.30;;;;;;;9.00;72.70;99797.67;79630;1294;3013700;-61
2024/03/16 10:53:42;;;;;;;99.00;35.40;;;;;;;8.89;73.19;99796.28;78078;1300;3053815;-60
2024/03/16 10:56:09;;;;;;;102.60;36.50;;;;;;;8.87;73.24;99793.73;79369;1300;3012952;-61
2024/03/16 10:58:35;;;;;;;105.40;36.90;;;;;;;8.89;72.97;99791.73;79474;1295;3012824;-61
2024/03/16 11:01:07;;;;;;;103.50;38.10;;;;;;;8.81;72.98;99790.17;78006;1301;3028424;-60
2024/03/16 11:03:38;;;;;;;111.50;39.90;;;;;;;8.67;73.77;99791.18;79645;1297;3011694;-60
2024/03/16 11:06:09;;;;;;;124.90;40.50;;;;;;;8.61;74.29;99790.27;78328;1296;3053091;-61
2024/03/16 11:08:39;;;;;;;120.40;39.60;;;;;;;8.62;74.50;99788.84;79506;1298;3011495;-58
2024/03/16 11:11:13;;;;;;;114.90;39.00;;;;;;;8.58;74.53;99791.44;78366;1298;3052618;-60
2024/03/16 11:13:59;;;;;;;104.50;37.60;;;;;;;8.52;75.03;99793.30;79430;1298;3011958;-60
2024/03/16 11:16:32;;;;;;;114.60;40.20;;;;;;;8.46;75.43;99792.02;78209;1298;3069553;-61
2024/03/16 11:19:09;;;;;;;111.60;40.70;;;;;;;8.47;75.56;99792.48;79534;1298;3011773;-62